Polfoss — V2PN7 — position and weather

sailwx.info

Track history (hours):
 
Tides and Currents Weather Stations Pressure Air Temp Water Temp Dewpoint Dewpoint Depression Visibility Wind Speed Wind Dir Waves Ship Positions

Polfoss

Last reported at 2017-Aug-21 23:30 UTC. Time now 2017-Aug-21 23:41 UTC.
Position N 68°42' E 015°25'.

Length 82 m; draft 6.2 m.

Type: Cargo ship. MMSI: 305081000.

Date/timePositionNaut miles runAvg speedWind from/ knotsBaromVisibWave heightAir tempDewpointWater temp
2017-Aug-21 23:30N 68°42' E 015°25'0 0.0
2017-Aug-21 23:00N 68°42' E 015°25'0 0.0
2017-Aug-21 22:30N 68°42' E 015°25'3 5.1
2017-Aug-21 22:00N 68°45' E 015°25'714.0
2017-Aug-21 21:30N 68°51' E 015°25'713.9
2017-Aug-21 21:00N 68°58' E 015°23'713.8
2017-Aug-21 20:30N 69°05' E 015°27'714.2
2017-Aug-21 20:00N 69°12' E 015°36'714.5
2017-Aug-21 19:30N 69°18' E 015°47'713.8
2017-Aug-21 19:00N 69°22' E 016°03'612.9
2017-Aug-21 18:30N 69°22' E 016°21'713.3
2017-Aug-21 18:00N 69°21' E 016°40'713.2
2017-Aug-21 17:30N 69°20' E 016°58'3 5.8
2017-Aug-21 17:00N 69°20' E 017°06'0 0.0
2017-Aug-21 16:30N 69°20' E 017°06'1 1.9
2017-Aug-21 16:00N 69°20' E 017°04'612.6
2017-Aug-21 15:30N 69°23' E 016°49'613.1
2017-Aug-21 15:00N 69°30' E 016°52'713.9
2017-Aug-21 14:30N 69°33' E 017°09'713.0
2017-Aug-21 14:00N 69°32' E 017°28'2 4.2
2017-Aug-21 13:30N 69°30' E 017°29'0 0.0
2017-Aug-21 12:58N 69°30' E 017°29'0 0.0
2017-Aug-21 12:30N 69°30' E 017°29'0 0.0
2017-Aug-21 12:00N 69°30' E 017°29'0 0.0
2017-Aug-21 11:30N 69°30' E 017°29'0 0.1
2017-Aug-21 11:00N 69°30' E 017°29'510.4
2017-Aug-21 10:30N 69°35' E 017°27'612.2
2017-Aug-21 10:00N 69°39' E 017°39'612.7
2017-Aug-21 09:30N 69°36' E 017°56'2 4.1
2017-Aug-21 09:00N 69°38' E 018°00'0 0.0
2017-Aug-21 08:30N 69°38' E 018°00'0 0.0
2017-Aug-21 07:59N 69°38' E 018°00'0 0.0
2017-Aug-21 07:30N 69°38' E 018°00'0 0.0
2017-Aug-21 07:00N 69°38' E 018°00'0 0.0
2017-Aug-21 06:30N 69°38' E 018°00'0 0.0
2017-Aug-21 06:00N 69°38' E 018°00'0 0.0
2017-Aug-21 05:30N 69°38' E 018°00'0 0.0
2017-Aug-21 05:00N 69°38' E 018°00'0 0.0
2017-Aug-21 04:30N 69°38' E 018°00'0 0.0
2017-Aug-21 04:00N 69°38' E 018°00'0 0.0
2017-Aug-21 03:29N 69°38' E 018°00'0 0.0
2017-Aug-21 03:00N 69°38' E 018°00'0 0.0
2017-Aug-21 02:30N 69°38' E 018°00'0 0.0
2017-Aug-21 02:00N 69°38' E 018°00'0 0.0
2017-Aug-21 01:30N 69°38' E 018°00'0 0.0
2017-Aug-21 01:00N 69°38' E 018°00'0 0.0
2017-Aug-21 00:30N 69°38' E 018°00'0 0.0
2017-Aug-20 23:59N 69°38' E 018°00'0 0.0
2017-Aug-20 23:30N 69°38' E 018°00'0 0.0
2017-Aug-20 23:00N 69°38' E 018°00'0 0.0
2017-Aug-20 22:30N 69°38' E 018°00'0 0.0
2017-Aug-20 22:00N 69°38' E 018°00'0 0.0
2017-Aug-20 21:30N 69°38' E 018°00'0 0.3
2017-Aug-20 21:00N 69°38' E 018°00'2 4.6
2017-Aug-20 20:30N 69°36' E 017°57'713.5
2017-Aug-20 20:00N 69°30' E 018°05'611.9
2017-Aug-20 19:29N 69°24' E 018°09'0 0.1
2017-Aug-20 18:59N 69°24' E 018°09'3 6.0
2017-Aug-20 18:30N 69°27' E 018°07'612.8
2017-Aug-20 18:00N 69°31' E 018°22'714.3
2017-Aug-20 17:29N 69°33' E 018°41'713.5
2017-Aug-20 17:00N 69°37' E 018°56'1 0.9
2017-Aug-20 16:28N 69°38' E 018°57'0 0.0
2017-Aug-20 16:00N 69°38' E 018°57'0 0.0
2017-Aug-20 15:30N 69°38' E 018°57'0 0.0
2017-Aug-20 15:00N 69°38' E 018°57'0 0.0
2017-Aug-20 14:30N 69°38' E 018°57'0 0.0
2017-Aug-20 13:59N 69°38' E 018°57'0 0.0
2017-Aug-20 13:29N 69°38' E 018°57'0 0.0
2017-Aug-20 12:59N 69°38' E 018°57'0 0.0
2017-Aug-20 12:28N 69°38' E 018°57'2 4.0
2017-Aug-20 12:00N 69°39' E 018°59'0 0.7
2017-Aug-20 11:28N 69°39' E 018°58'0 0.0
2017-Aug-20 11:00N 69°39' E 018°58'0 0.0
2017-Aug-20 10:30N 69°39' E 018°58'0 0.0
2017-Aug-20 10:00N 69°39' E 018°58'0 0.0
2017-Aug-20 09:30N 69°39' E 018°58'0 0.0
2017-Aug-20 08:59N 69°39' E 018°58'0 0.0
2017-Aug-20 08:29N 69°39' E 018°58'0 0.0
2017-Aug-20 07:59N 69°39' E 018°58'0 0.0
2017-Aug-20 07:28N 69°39' E 018°58'0 0.0
2017-Aug-20 06:58N 69°39' E 018°58'0 0.0
2017-Aug-20 06:25N 69°39' E 018°58'0 0.0
2017-Aug-20 06:00N 69°39' E 018°58'0 0.0
2017-Aug-20 05:30N 69°39' E 018°58'0 0.0
2017-Aug-20 05:00N 69°39' E 018°58'0 0.0
2017-Aug-20 04:30N 69°39' E 018°58'0 0.0
2017-Aug-20 03:59N 69°39' E 018°58'0 0.0
2017-Aug-20 03:29N 69°39' E 018°58'0 0.0
2017-Aug-20 02:59N 69°39' E 018°58'0 0.0
2017-Aug-20 02:28N 69°39' E 018°58'0 0.0
2017-Aug-20 01:58N 69°39' E 018°58'0 0.0
2017-Aug-20 01:28N 69°39' E 018°58'0 0.0
2017-Aug-20 00:57N 69°39' E 018°58'0 0.0
2017-Aug-20 00:30N 69°39' E 018°58'0 0.0
2017-Aug-20 00:00N 69°39' E 018°58'0 0.0
2017-Aug-19 23:30N 69°39' E 018°58'0 0.0
2017-Aug-19 22:59N 69°39' E 018°58'0 0.0
2017-Aug-19 22:29N 69°39' E 018°58'0 0.3
2017-Aug-19 22:00N 69°39' E 018°58'611.6
2017-Aug-19 21:30N 69°45' E 019°03'714.3
2017-Aug-19 21:00N 69°48' E 019°22'714.6
2017-Aug-19 20:30N 69°50' E 019°42'714.5
2017-Aug-19 20:01N 69°55' E 019°58'814.6
2017-Aug-19 19:30N 69°59' E 020°16'714.3
2017-Aug-19 19:00N 70°01' E 020°36'714.2
2017-Aug-19 18:30N 70°04' E 020°55'714.6
2017-Aug-19 18:00N 70°11' E 021°05'714.0
2017-Aug-19 17:30N 70°16' E 021°18'713.8
2017-Aug-19 17:00N 70°21' E 021°33'713.3
2017-Aug-19 16:30N 70°25' E 021°49'714.2
2017-Aug-19 16:01N 70°26' E 022°09'714.0
2017-Aug-19 15:30N 70°28' E 022°29'714.4
2017-Aug-19 15:00N 70°30' E 022°50'1414.0
2017-Aug-19 14:00N 70°38' E 023°25'510.0
2017-Aug-19 13:30N 70°38' E 023°40'0 0.0
2017-Aug-19 13:00N 70°38' E 023°40'0 0.0
2017-Aug-19 12:30N 70°38' E 023°40'0 0.0
2017-Aug-19 12:00N 70°38' E 023°40'1 2.9
2017-Aug-19 11:30N 70°39' E 023°36'612.3
2017-Aug-19 11:00N 70°45' E 023°37'713.9
2017-Aug-19 10:30N 70°50' E 023°52'713.6
2017-Aug-19 10:00N 70°54' E 024°07'713.1
2017-Aug-19 09:30N 70°59' E 024°22'612.3
2017-Aug-19 09:00N 71°01' E 024°39'713.9
2017-Aug-19 08:30N 70°60' E 024°60'713.9
2017-Aug-19 08:00N 70°59' E 025°21'612.8
2017-Aug-19 07:30N 70°56' E 025°38'714.2
2017-Aug-19 07:00N 70°57' E 025°59'714.4
2017-Aug-19 06:30N 70°58' E 026°20'714.3
2017-Aug-19 06:00N 70°60' E 026°42'714.0
2017-Aug-19 05:30N 70°60' E 027°04'612.0
2017-Aug-19 05:00N 70°57' E 027°20'0 0.0
2017-Aug-19 04:30N 70°57' E 027°20'3 6.8
2017-Aug-19 04:00N 70°59' E 027°13'610.9
2017-Aug-19 03:30N 71°05' E 027°20'713.7
2017-Aug-19 03:00N 71°08' E 027°37'713.0
2017-Aug-19 02:29N 71°08' E 027°58'713.3
2017-Aug-19 02:00N 71°07' E 028°17'713.3
2017-Aug-19 01:30N 71°03' E 028°34'713.7
2017-Aug-19 01:00N 70°59' E 028°51'713.4
2017-Aug-19 00:30N 70°55' E 029°07'713.1
2017-Aug-19 00:00N 70°51' E 029°23'613.2
2017-Aug-18 23:30N 70°47' E 029°39'612.4
2017-Aug-18 23:00N 70°42' E 029°50'5 9.6
2017-Aug-18 22:30N 70°38' E 029°43'0 0.0
2017-Aug-18 22:00N 70°38' E 029°43'0 0.0
2017-Aug-18 21:29N 70°38' E 029°43'0 0.0
2017-Aug-18 21:00N 70°38' E 029°43'0 0.0
2017-Aug-18 20:30N 70°38' E 029°43'0 0.0
2017-Aug-18 19:59N 70°38' E 029°43'0 0.0
2017-Aug-18 19:30N 70°38' E 029°43'0 0.0
2017-Aug-18 18:59N 70°38' E 029°43'0 0.0
2017-Aug-18 18:29N 70°38' E 029°43'0 0.0
2017-Aug-18 18:00N 70°38' E 029°43'0 0.0
2017-Aug-18 17:30N 70°38' E 029°43'0 0.0
2017-Aug-18 16:59N 70°38' E 029°43'0 0.0
2017-Aug-18 16:30N 70°38' E 029°43'0 0.0
2017-Aug-18 15:59N 70°38' E 029°43'0 0.0
2017-Aug-18 15:30N 70°38' E 029°43'0 0.0
2017-Aug-18 15:00N 70°38' E 029°43'0 0.0
2017-Aug-18 13:59N 70°38' E 029°43'0 0.0
2017-Aug-18 13:30N 70°38' E 029°43'0 0.0
2017-Aug-18 13:00N 70°38' E 029°43'0 0.0
2017-Aug-18 12:29N 70°38' E 029°43'0 0.0
2017-Aug-18 11:59N 70°38' E 029°43'0 0.0
2017-Aug-18 11:30N 70°38' E 029°43'0 0.0
2017-Aug-18 11:00N 70°38' E 029°43'0 0.0
2017-Aug-18 10:30N 70°38' E 029°43'0 0.0
2017-Aug-18 10:00N 70°38' E 029°43'0 0.0
2017-Aug-18 09:29N 70°38' E 029°43'0 0.0
2017-Aug-18 09:00N 70°38' E 029°43'0 0.0
2017-Aug-18 08:29N 70°38' E 029°43'0 0.0
2017-Aug-18 07:59N 70°38' E 029°43'0 0.0
2017-Aug-18 07:30N 70°38' E 029°43'0 0.0
2017-Aug-18 06:59N 70°38' E 029°43'0 0.0
2017-Aug-18 06:30N 70°38' E 029°43'0 0.0
2017-Aug-18 06:00N 70°38' E 029°43'0 0.0
2017-Aug-18 05:29N 70°38' E 029°43'0 0.0
2017-Aug-18 05:00N 70°38' E 029°43'0 0.0
2017-Aug-18 04:29N 70°38' E 029°43'1 3.1
2017-Aug-18 04:00N 70°39' E 029°47'713.9
2017-Aug-18 03:30N 70°43' E 030°03'713.5
2017-Aug-18 03:00N 70°40' E 030°20'714.2
2017-Aug-18 02:30N 70°35' E 030°36'713.9
2017-Aug-18 02:00N 70°30' E 030°51'713.7
2017-Aug-18 01:30N 70°24' E 031°02'713.4
2017-Aug-18 01:00N 70°18' E 031°05'713.9
2017-Aug-18 00:30N 70°12' E 030°53'714.1
2017-Aug-18 00:00N 70°07' E 030°40'714.1
2017-Aug-17 23:30N 70°01' E 030°27'714.3
2017-Aug-17 23:00N 69°55' E 030°15'713.7
2017-Aug-17 22:30N 69°49' E 030°07'511.0
2017-Aug-17 22:00N 69°44' E 030°04'0 0.0
2017-Aug-17 21:30N 69°44' E 030°04'0 0.0
2017-Aug-17 20:59N 69°44' E 030°04'0 0.0
2017-Aug-17 20:30N 69°44' E 030°04'0 0.0
2017-Aug-17 20:00N 69°44' E 030°04'0 0.0
2017-Aug-17 18:41N 69°44' E 030°04'0 0.0
2017-Aug-17 18:30N 69°44' E 030°04'0 0.0
2017-Aug-17 18:00N 69°44' E 030°04'0 0.0
2017-Aug-17 17:30N 69°44' E 030°04'1 1.6
2017-Aug-17 17:00N 69°45' E 030°05'713.1
2017-Aug-17 16:30N 69°51' E 030°07'713.9
2017-Aug-17 16:00N 69°57' E 030°19'714.5
2017-Aug-17 15:30N 70°02' E 030°32'714.7
2017-Aug-17 15:00N 70°08' E 030°45'714.8
2017-Aug-17 14:30N 70°14' E 030°59'713.7
2017-Aug-17 14:00N 70°20' E 031°05'714.9
2017-Aug-17 13:30N 70°27' E 030°58'815.3
2017-Aug-17 13:00N 70°33' E 030°42'815.4
2017-Aug-17 12:30N 70°38' E 030°25'815.8
2017-Aug-17 12:00N 70°43' E 030°06'713.4
2017-Aug-17 11:30N 70°40' E 029°49'3 5.2
2017-Aug-17 11:00N 70°38' E 029°44'0 0.0
2017-Aug-17 10:30N 70°38' E 029°44'0 0.0
2017-Aug-17 10:00N 70°38' E 029°44'0 0.0
2017-Aug-17 09:29N 70°38' E 029°44'3 5.7
2017-Aug-17 09:00N 70°40' E 029°49'613.4
2017-Aug-17 08:30N 70°46' E 029°43'815.6
2017-Aug-17 07:59N 70°51' E 029°24'715.2
2017-Aug-17 07:30N 70°55' E 029°06'815.1
2017-Aug-17 07:00N 70°60' E 028°46'714.7
2017-Aug-17 06:30N 71°04' E 028°29'714.1
2017-Aug-17 06:00N 71°07' E 028°10'8 4.9
2017-Aug-17 04:27N 71°03' E 027°50'612.8
2017-Aug-17 04:00N 71°08' E 027°41'714.1
2017-Aug-17 03:30N 71°07' E 027°20'714.9
2017-Aug-17 03:00N 71°04' E 026°59'815.0
2017-Aug-17 02:30N 71°02' E 026°37'715.0
2017-Aug-17 02:00N 70°59' E 026°15'714.7
2017-Aug-17 01:30N 70°57' E 025°54'714.0
2017-Aug-17 01:00N 70°56' E 025°33'612.5
2017-Aug-17 00:30N 70°59' E 025°17'714.6
2017-Aug-17 00:00N 70°60' E 024°55'714.6
2017-Aug-16 23:30N 71°02' E 024°33'815.0
2017-Aug-16 23:00N 70°57' E 024°16'815.5
2017-Aug-16 22:31N 70°51' E 023°59'815.2
2017-Aug-16 22:00N 70°46' E 023°42'714.4
2017-Aug-16 21:30N 70°40' E 023°31'3 6.9
2017-Aug-16 21:00N 70°38' E 023°40'0 0.0
2017-Aug-16 20:30N 70°38' E 023°40'0 0.0
2017-Aug-16 20:00N 70°38' E 023°40'1 1.3
2017-Aug-16 19:30N 70°38' E 023°38'714.5
2017-Aug-16 19:00N 70°37' E 023°17'714.3
2017-Aug-16 18:30N 70°32' E 023°00'714.3
2017-Aug-16 18:00N 70°29' E 022°40'714.2
2017-Aug-16 17:30N 70°27' E 022°20'713.8
2017-Aug-16 17:00N 70°26' E 022°00'714.5
2017-Aug-16 16:30N 70°23' E 021°40'815.2
2017-Aug-16 16:00N 70°18' E 021°25'714.7
2017-Aug-16 15:30N 70°13' E 021°08'714.7
2017-Aug-16 15:00N 70°06' E 020°59'714.3
2017-Aug-16 14:30N 70°02' E 020°42'815.1
2017-Aug-16 14:00N 69°60' E 020°21'714.9
2017-Aug-16 13:30N 69°56' E 020°02'714.6
2017-Aug-16 13:00N 69°51' E 019°46'714.6
2017-Aug-16 12:30N 69°48' E 019°26'714.8
2017-Aug-16 12:00N 69°46' E 019°06'714.2
2017-Aug-16 11:29N 69°39' E 018°59'2 3.1
2017-Aug-16 10:58N 69°38' E 018°57'0 0.0
2017-Aug-16 10:28N 69°38' E 018°57'0 0.0
2017-Aug-16 09:58N 69°38' E 018°57'0 0.0
2017-Aug-16 09:31N 69°38' E 018°57'0 0.0
2017-Aug-16 09:00N 69°38' E 018°57'0 0.1
2017-Aug-16 08:30N 69°38' E 018°57'2 3.7
2017-Aug-16 08:00N 69°39' E 018°58'0 0.0
2017-Aug-16 07:30N 69°39' E 018°58'0 0.0
2017-Aug-16 07:00N 69°39' E 018°58'0 0.0
2017-Aug-16 06:30N 69°39' E 018°58'0 0.0
2017-Aug-16 06:00N 69°39' E 018°58'0 0.0
2017-Aug-16 05:30N 69°39' E 018°58'0 0.0
2017-Aug-16 05:00N 69°39' E 018°58'0 0.0
2017-Aug-16 04:30N 69°39' E 018°58'0 0.0
2017-Aug-16 04:00N 69°39' E 018°58'0 0.0
2017-Aug-16 03:30N 69°39' E 018°58'0 0.0
2017-Aug-16 03:00N 69°39' E 018°58'0 0.0
2017-Aug-16 02:30N 69°39' E 018°58'0 0.0
2017-Aug-16 02:00N 69°39' E 018°58'0 0.0
2017-Aug-16 01:30N 69°39' E 018°58'0 0.0
2017-Aug-16 01:00N 69°39' E 018°58'0 0.0
2017-Aug-16 00:30N 69°39' E 018°58'0 0.0
2017-Aug-16 00:01N 69°39' E 018°58'0 0.0
2017-Aug-15 23:30N 69°39' E 018°58'0 0.0
2017-Aug-15 23:00N 69°39' E 018°58'0 0.0
2017-Aug-15 22:30N 69°39' E 018°58'0 0.0
2017-Aug-15 22:00N 69°39' E 018°58'0 0.0
2017-Aug-15 21:30N 69°39' E 018°58'0 0.0
2017-Aug-15 21:00N 69°39' E 018°58'0 0.0
2017-Aug-15 20:30N 69°39' E 018°58'0 0.0
2017-Aug-15 20:00N 69°39' E 018°58'0 0.0
2017-Aug-15 19:30N 69°39' E 018°58'0 0.0
2017-Aug-15 19:00N 69°39' E 018°58'0 0.0
2017-Aug-15 18:30N 69°39' E 018°58'0 0.0
2017-Aug-15 17:59N 69°39' E 018°58'0 0.0
2017-Aug-15 17:30N 69°39' E 018°58'0 0.0
2017-Aug-15 17:00N 69°39' E 018°58'0 0.0
2017-Aug-15 16:29N 69°39' E 018°58'0 0.0
2017-Aug-15 16:00N 69°39' E 018°58'0 0.0
2017-Aug-15 15:30N 69°39' E 018°58'0 0.0
2017-Aug-15 15:00N 69°39' E 018°58'0 0.0
2017-Aug-15 14:30N 69°39' E 018°58'0 0.0
2017-Aug-15 14:00N 69°39' E 018°58'0 0.0
2017-Aug-15 13:30N 69°39' E 018°58'0 0.0
2017-Aug-15 12:59N 69°39' E 018°58'0 0.0
2017-Aug-15 12:30N 69°39' E 018°58'0 0.0
2017-Aug-15 12:00N 69°39' E 018°58'0 0.0
2017-Aug-15 11:30N 69°39' E 018°58'0 0.0
2017-Aug-15 11:00N 69°39' E 018°58'0 0.0
2017-Aug-15 10:30N 69°39' E 018°58'0 0.0
2017-Aug-15 10:00N 69°39' E 018°58'0 0.0
2017-Aug-15 09:30N 69°39' E 018°58'0 0.0
2017-Aug-15 09:00N 69°39' E 018°58'0 0.0
2017-Aug-15 08:30N 69°39' E 018°58'0 0.0
2017-Aug-15 08:00N 69°39' E 018°58'0 0.0
2017-Aug-15 07:30N 69°39' E 018°58'0 0.0
2017-Aug-15 07:00N 69°39' E 018°58'0 0.0
2017-Aug-15 06:30N 69°39' E 018°58'0 0.0
2017-Aug-15 06:00N 69°39' E 018°58'2 4.5
2017-Aug-15 05:30N 69°37' E 018°56'4 8.2
2017-Aug-15 05:00N 69°34' E 018°48'4 8.2
2017-Aug-15 04:30N 69°33' E 018°38'4 8.6
2017-Aug-15 04:00N 69°31' E 018°26'4 8.5
2017-Aug-15 03:30N 69°30' E 018°14'4 8.4
2017-Aug-15 03:00N 69°26' E 018°07'4 9.0
2017-Aug-15 02:30N 69°22' E 018°06'5 9.5
2017-Aug-15 02:00N 69°18' E 017°58'4 8.3
2017-Aug-15 01:30N 69°14' E 017°58'0 0.0
2017-Aug-15 01:00N 69°14' E 017°58'0 0.0
2017-Aug-15 00:30N 69°14' E 017°58'0 0.0
2017-Aug-15 00:00N 69°14' E 017°58'0 0.0
2017-Aug-14 23:30N 69°14' E 017°58'0 0.0
2017-Aug-14 23:00N 69°14' E 017°58'0 0.0
2017-Aug-14 22:29N 69°14' E 017°58'0 0.0
2017-Aug-14 22:00N 69°14' E 017°58'0 0.0
2017-Aug-14 21:30N 69°14' E 017°58'2 3.5
2017-Aug-14 21:00N 69°12' E 018°01'713.2
2017-Aug-14 20:30N 69°08' E 017°46'714.9
2017-Aug-14 20:00N 69°06' E 017°26'815.1
2017-Aug-14 19:30N 68°59' E 017°15'814.9
2017-Aug-14 19:00N 68°54' E 017°00'714.9
2017-Aug-14 18:30N 68°48' E 016°50'714.6
2017-Aug-14 18:00N 68°41' E 016°41'816.1
2017-Aug-14 17:29N 68°34' E 016°31'714.5
2017-Aug-14 17:00N 68°32' E 016°12'714.4
2017-Aug-14 16:30N 68°26' E 016°02'1 2.0
2017-Aug-14 16:00N 68°25' E 015°60'0 0.0
2017-Aug-14 15:30N 68°25' E 015°60'16 6.7
2017-Aug-14 13:07N 68°12' E 015°34'215.3
2017-Aug-14 13:00N 68°11' E 015°30'815.2
2017-Aug-14 12:30N 68°07' E 015°14'815.2
2017-Aug-14 12:00N 68°01' E 014°59'815.2
2017-Aug-14 11:30N 67°57' E 014°43'714.8
2017-Aug-14 11:00N 67°52' E 014°29'714.3
2017-Aug-14 10:30N 67°46' E 014°19'713.4
2017-Aug-14 10:00N 67°39' E 014°16'713.7
2017-Aug-14 09:30N 67°32' E 014°20'713.5
2017-Aug-14 09:00N 67°26' E 014°26'714.1
2017-Aug-14 08:30N 67°20' E 014°19'715.0
2017-Aug-14 08:00N 67°13' E 014°09'815.1
2017-Aug-14 07:30N 67°07' E 013°59'714.7
2017-Aug-14 07:00N 67°02' E 013°46'714.4
2017-Aug-14 06:31N 66°58' E 013°30'713.0
2017-Aug-14 06:00N 66°52' E 013°21'714.1
2017-Aug-14 05:30N 66°46' E 013°13'714.9
2017-Aug-14 05:00N 66°39' E 013°07'713.4
2017-Aug-14 04:30N 66°33' E 013°01'713.1
2017-Aug-14 04:00N 66°26' E 012°59'715.0
2017-Aug-14 03:30N 66°19' E 012°57'814.9
2017-Aug-14 03:00N 66°12' E 012°51'715.0
2017-Aug-14 02:30N 66°05' E 012°41'815.0
2017-Aug-14 02:00N 65°59' E 012°30'714.8
2017-Aug-14 01:30N 65°53' E 012°22'714.8
2017-Aug-14 01:00N 65°45' E 012°18'715.0
2017-Aug-14 00:30N 65°38' E 012°13'714.7
2017-Aug-14 00:00N 65°32' E 012°03'714.6
2017-Aug-13 23:30N 65°26' E 011°56'612.0
2017-Aug-13 23:00N 65°20' E 012°02'714.9
2017-Aug-13 22:30N 65°13' E 011°54'714.5
2017-Aug-13 22:00N 65°07' E 011°48'714.6
2017-Aug-13 21:30N 65°01' E 011°39'714.7
2017-Aug-13 21:01N 64°56' E 011°25'714.0
2017-Aug-13 20:31N 64°51' E 011°13'714.6
2017-Aug-13 20:01N 64°46' E 011°01'714.7
2017-Aug-13 19:30N 64°41' E 010°48'714.5
2017-Aug-13 19:00N 64°36' E 010°36'714.7
2017-Aug-13 18:30N 64°31' E 010°24'815.0
2017-Aug-13 18:00N 64°25' E 010°12'714.6
2017-Aug-13 17:30N 64°20' E 009°59'714.2
2017-Aug-13 17:00N 64°16' E 009°47'714.2
2017-Aug-13 16:30N 64°11' E 009°36'714.3
2017-Aug-13 16:01N 64°05' E 009°25'714.4
2017-Aug-13 15:30N 63°59' E 009°16'713.4
2017-Aug-13 15:00N 63°53' E 009°10'612.6
2017-Aug-13 14:30N 63°47' E 009°11'714.1
2017-Aug-13 14:01N 63°40' E 009°14'714.6
2017-Aug-13 13:30N 63°32' E 009°15'916.9
2017-Aug-13 13:00N 63°29' E 008°58'816.4
2017-Aug-13 12:30N 63°26' E 008°41'816.2
2017-Aug-13 12:00N 63°22' E 008°25'816.5
2017-Aug-13 11:30N 63°17' E 008°11'816.0
2017-Aug-13 11:00N 63°13' E 007°55'815.3
2017-Aug-13 10:30N 63°08' E 007°42'3 6.2
2017-Aug-13 10:00N 63°06' E 007°47'0 0.0
2017-Aug-13 09:30N 63°06' E 007°47'0 0.2
2017-Aug-13 09:00N 63°06' E 007°47'510.6
2017-Aug-13 08:31N 63°07' E 007°35'815.3
2017-Aug-13 08:01N 63°04' E 007°21'815.0
2017-Aug-13 07:30N 63°01' E 007°05'714.8
2017-Aug-13 07:00N 62°57' E 006°51'714.9
2017-Aug-13 06:30N 62°51' E 006°42'815.4
2017-Aug-13 06:00N 62°45' E 006°32'815.2
2017-Aug-13 05:31N 62°38' E 006°23'815.0
2017-Aug-13 05:00N 62°33' E 006°11'5 9.7
2017-Aug-13 04:30N 62°29' E 006°16'1 1.8
2017-Aug-13 04:00N 62°29' E 006°18'611.1
2017-Aug-13 03:30N 62°29' E 006°06'1 2.2
2017-Aug-13 03:00N 62°28' E 006°08'0 0.1
2017-Aug-13 02:30N 62°28' E 006°08'2 3.3
2017-Aug-13 02:00N 62°27' E 006°06'714.6
2017-Aug-13 01:30N 62°25' E 005°51'611.9
2017-Aug-13 01:00N 62°20' E 005°45'713.6
2017-Aug-13 00:30N 62°18' E 005°30'714.6
2017-Aug-13 00:00N 62°15' E 005°16'713.9
2017-Aug-12 23:30N 62°11' E 005°05'713.7
2017-Aug-12 23:00N 62°04' E 005°07'510.7
2017-Aug-12 22:30N 61°59' E 005°08'0 0.9
2017-Aug-12 22:00N 61°59' E 005°09'2 4.5
2017-Aug-12 21:30N 61°56' E 005°07'0 0.0
2017-Aug-12 21:01N 61°56' E 005°07'3 6.3
2017-Aug-12 20:30N 61°53' E 005°10'4 8.6
2017-Aug-12 20:00N 61°49' E 005°12'713.9
2017-Aug-12 19:29N 61°45' E 004°59'713.5
2017-Aug-12 19:00N 61°42' E 004°47'713.5
2017-Aug-12 18:30N 61°41' E 004°33'714.4
2017-Aug-12 18:00N 61°36' E 004°22'  
Track history (hours):
 
Tides and Currents Weather Stations Pressure Air Temp Water Temp Dewpoint Dewpoint Depression Visibility Wind Speed Wind Dir Waves Ship Positions

Polfoss

Last reported at 2017-Aug-21 23:30 UTC. Time now 2017-Aug-21 23:41 UTC.
Position N 68°42' E 015°25'.

Length 82 m; draft 6.2 m.

Type: Cargo ship. MMSI: 305081000.

Date/timePositionNaut miles runAvg speedWind from/ knotsBaromVisibWave heightAir tempDewpointWater temp
2017-Aug-21 23:30N 68°42' E 015°25'0 0.0
2017-Aug-21 23:00N 68°42' E 015°25'0 0.0
2017-Aug-21 22:30N 68°42' E 015°25'3 5.1
2017-Aug-21 22:00N 68°45' E 015°25'714.0
2017-Aug-21 21:30N 68°51' E 015°25'713.9
2017-Aug-21 21:00N 68°58' E 015°23'713.8
2017-Aug-21 20:30N 69°05' E 015°27'714.2
2017-Aug-21 20:00N 69°12' E 015°36'714.5
2017-Aug-21 19:30N 69°18' E 015°47'713.8
2017-Aug-21 19:00N 69°22' E 016°03'612.9
2017-Aug-21 18:30N 69°22' E 016°21'713.3
2017-Aug-21 18:00N 69°21' E 016°40'713.2
2017-Aug-21 17:30N 69°20' E 016°58'3 5.8
2017-Aug-21 17:00N 69°20' E 017°06'0 0.0
2017-Aug-21 16:30N 69°20' E 017°06'1 1.9
2017-Aug-21 16:00N 69°20' E 017°04'612.6
2017-Aug-21 15:30N 69°23' E 016°49'613.1
2017-Aug-21 15:00N 69°30' E 016°52'713.9
2017-Aug-21 14:30N 69°33' E 017°09'713.0
2017-Aug-21 14:00N 69°32' E 017°28'2 4.2
2017-Aug-21 13:30N 69°30' E 017°29'0 0.0
2017-Aug-21 12:58N 69°30' E 017°29'0 0.0
2017-Aug-21 12:30N 69°30' E 017°29'0 0.0
2017-Aug-21 12:00N 69°30' E 017°29'0 0.0
2017-Aug-21 11:30N 69°30' E 017°29'0 0.1
2017-Aug-21 11:00N 69°30' E 017°29'510.4
2017-Aug-21 10:30N 69°35' E 017°27'612.2
2017-Aug-21 10:00N 69°39' E 017°39'612.7
2017-Aug-21 09:30N 69°36' E 017°56'2 4.1
2017-Aug-21 09:00N 69°38' E 018°00'0 0.0
2017-Aug-21 08:30N 69°38' E 018°00'0 0.0
2017-Aug-21 07:59N 69°38' E 018°00'0 0.0
2017-Aug-21 07:30N 69°38' E 018°00'0 0.0
2017-Aug-21 07:00N 69°38' E 018°00'0 0.0
2017-Aug-21 06:30N 69°38' E 018°00'0 0.0
2017-Aug-21 06:00N 69°38' E 018°00'0 0.0
2017-Aug-21 05:30N 69°38' E 018°00'0 0.0
2017-Aug-21 05:00N 69°38' E 018°00'0 0.0
2017-Aug-21 04:30N 69°38' E 018°00'0 0.0
2017-Aug-21 04:00N 69°38' E 018°00'0 0.0
2017-Aug-21 03:29N 69°38' E 018°00'0 0.0
2017-Aug-21 03:00N 69°38' E 018°00'0 0.0
2017-Aug-21 02:30N 69°38' E 018°00'0 0.0
2017-Aug-21 02:00N 69°38' E 018°00'0 0.0
2017-Aug-21 01:30N 69°38' E 018°00'0 0.0
2017-Aug-21 01:00N 69°38' E 018°00'0 0.0
2017-Aug-21 00:30N 69°38' E 018°00'0 0.0
2017-Aug-20 23:59N 69°38' E 018°00'0 0.0
2017-Aug-20 23:30N 69°38' E 018°00'0 0.0
2017-Aug-20 23:00N 69°38' E 018°00'0 0.0
2017-Aug-20 22:30N 69°38' E 018°00'0 0.0
2017-Aug-20 22:00N 69°38' E 018°00'0 0.0
2017-Aug-20 21:30N 69°38' E 018°00'0 0.3
2017-Aug-20 21:00N 69°38' E 018°00'2 4.6
2017-Aug-20 20:30N 69°36' E 017°57'713.5
2017-Aug-20 20:00N 69°30' E 018°05'611.9
2017-Aug-20 19:29N 69°24' E 018°09'0 0.1
2017-Aug-20 18:59N 69°24' E 018°09'3 6.0
2017-Aug-20 18:30N 69°27' E 018°07'612.8
2017-Aug-20 18:00N 69°31' E 018°22'714.3
2017-Aug-20 17:29N 69°33' E 018°41'713.5
2017-Aug-20 17:00N 69°37' E 018°56'1 0.9
2017-Aug-20 16:28N 69°38' E 018°57'0 0.0
2017-Aug-20 16:00N 69°38' E 018°57'0 0.0
2017-Aug-20 15:30N 69°38' E 018°57'0 0.0
2017-Aug-20 15:00N 69°38' E 018°57'0 0.0
2017-Aug-20 14:30N 69°38' E 018°57'0 0.0
2017-Aug-20 13:59N 69°38' E 018°57'0 0.0
2017-Aug-20 13:29N 69°38' E 018°57'0 0.0
2017-Aug-20 12:59N 69°38' E 018°57'0 0.0
2017-Aug-20 12:28N 69°38' E 018°57'2 4.0
2017-Aug-20 12:00N 69°39' E 018°59'0 0.7
2017-Aug-20 11:28N 69°39' E 018°58'0 0.0
2017-Aug-20 11:00N 69°39' E 018°58'0 0.0
2017-Aug-20 10:30N 69°39' E 018°58'0 0.0
2017-Aug-20 10:00N 69°39' E 018°58'0 0.0
2017-Aug-20 09:30N 69°39' E 018°58'0 0.0
2017-Aug-20 08:59N 69°39' E 018°58'0 0.0
2017-Aug-20 08:29N 69°39' E 018°58'0 0.0
2017-Aug-20 07:59N 69°39' E 018°58'0 0.0
2017-Aug-20 07:28N 69°39' E 018°58'0 0.0
2017-Aug-20 06:58N 69°39' E 018°58'0 0.0
2017-Aug-20 06:25N 69°39' E 018°58'0 0.0
2017-Aug-20 06:00N 69°39' E 018°58'0 0.0
2017-Aug-20 05:30N 69°39' E 018°58'0 0.0
2017-Aug-20 05:00N 69°39' E 018°58'0 0.0
2017-Aug-20 04:30N 69°39' E 018°58'0 0.0
2017-Aug-20 03:59N 69°39' E 018°58'0 0.0
2017-Aug-20 03:29N 69°39' E 018°58'0 0.0
2017-Aug-20 02:59N 69°39' E 018°58'0 0.0
2017-Aug-20 02:28N 69°39' E 018°58'0 0.0
2017-Aug-20 01:58N 69°39' E 018°58'0 0.0
2017-Aug-20 01:28N 69°39' E 018°58'0 0.0
2017-Aug-20 00:57N 69°39' E 018°58'0 0.0
2017-Aug-20 00:30N 69°39' E 018°58'0 0.0
2017-Aug-20 00:00N 69°39' E 018°58'0 0.0
2017-Aug-19 23:30N 69°39' E 018°58'0 0.0
2017-Aug-19 22:59N 69°39' E 018°58'0 0.0
2017-Aug-19 22:29N 69°39' E 018°58'0 0.3
2017-Aug-19 22:00N 69°39' E 018°58'611.6
2017-Aug-19 21:30N 69°45' E 019°03'714.3
2017-Aug-19 21:00N 69°48' E 019°22'714.6
2017-Aug-19 20:30N 69°50' E 019°42'714.5
2017-Aug-19 20:01N 69°55' E 019°58'814.6
2017-Aug-19 19:30N 69°59' E 020°16'714.3
2017-Aug-19 19:00N 70°01' E 020°36'714.2
2017-Aug-19 18:30N 70°04' E 020°55'714.6
2017-Aug-19 18:00N 70°11' E 021°05'714.0
2017-Aug-19 17:30N 70°16' E 021°18'713.8
2017-Aug-19 17:00N 70°21' E 021°33'713.3
2017-Aug-19 16:30N 70°25' E 021°49'714.2
2017-Aug-19 16:01N 70°26' E 022°09'714.0
2017-Aug-19 15:30N 70°28' E 022°29'714.4
2017-Aug-19 15:00N 70°30' E 022°50'1414.0
2017-Aug-19 14:00N 70°38' E 023°25'510.0
2017-Aug-19 13:30N 70°38' E 023°40'0 0.0
2017-Aug-19 13:00N 70°38' E 023°40'0 0.0
2017-Aug-19 12:30N 70°38' E 023°40'0 0.0
2017-Aug-19 12:00N 70°38' E 023°40'1 2.9
2017-Aug-19 11:30N 70°39' E 023°36'612.3
2017-Aug-19 11:00N 70°45' E 023°37'713.9
2017-Aug-19 10:30N 70°50' E 023°52'713.6
2017-Aug-19 10:00N 70°54' E 024°07'713.1
2017-Aug-19 09:30N 70°59' E 024°22'612.3
2017-Aug-19 09:00N 71°01' E 024°39'713.9
2017-Aug-19 08:30N 70°60' E 024°60'713.9
2017-Aug-19 08:00N 70°59' E 025°21'612.8
2017-Aug-19 07:30N 70°56' E 025°38'714.2
2017-Aug-19 07:00N 70°57' E 025°59'714.4
2017-Aug-19 06:30N 70°58' E 026°20'714.3
2017-Aug-19 06:00N 70°60' E 026°42'714.0
2017-Aug-19 05:30N 70°60' E 027°04'612.0
2017-Aug-19 05:00N 70°57' E 027°20'0 0.0
2017-Aug-19 04:30N 70°57' E 027°20'3 6.8
2017-Aug-19 04:00N 70°59' E 027°13'610.9
2017-Aug-19 03:30N 71°05' E 027°20'713.7
2017-Aug-19 03:00N 71°08' E 027°37'713.0
2017-Aug-19 02:29N 71°08' E 027°58'713.3
2017-Aug-19 02:00N 71°07' E 028°17'713.3
2017-Aug-19 01:30N 71°03' E 028°34'713.7
2017-Aug-19 01:00N 70°59' E 028°51'713.4
2017-Aug-19 00:30N 70°55' E 029°07'713.1
2017-Aug-19 00:00N 70°51' E 029°23'613.2
2017-Aug-18 23:30N 70°47' E 029°39'612.4
2017-Aug-18 23:00N 70°42' E 029°50'5 9.6
2017-Aug-18 22:30N 70°38' E 029°43'0 0.0
2017-Aug-18 22:00N 70°38' E 029°43'0 0.0
2017-Aug-18 21:29N 70°38' E 029°43'0 0.0
2017-Aug-18 21:00N 70°38' E 029°43'0 0.0
2017-Aug-18 20:30N 70°38' E 029°43'0 0.0
2017-Aug-18 19:59N 70°38' E 029°43'0 0.0
2017-Aug-18 19:30N 70°38' E 029°43'0 0.0
2017-Aug-18 18:59N 70°38' E 029°43'0 0.0
2017-Aug-18 18:29N 70°38' E 029°43'0 0.0
2017-Aug-18 18:00N 70°38' E 029°43'0 0.0
2017-Aug-18 17:30N 70°38' E 029°43'0 0.0
2017-Aug-18 16:59N 70°38' E 029°43'0 0.0
2017-Aug-18 16:30N 70°38' E 029°43'0 0.0
2017-Aug-18 15:59N 70°38' E 029°43'0 0.0
2017-Aug-18 15:30N 70°38' E 029°43'0 0.0
2017-Aug-18 15:00N 70°38' E 029°43'0 0.0
2017-Aug-18 13:59N 70°38' E 029°43'0 0.0
2017-Aug-18 13:30N 70°38' E 029°43'0 0.0
2017-Aug-18 13:00N 70°38' E 029°43'0 0.0
2017-Aug-18 12:29N 70°38' E 029°43'0 0.0
2017-Aug-18 11:59N 70°38' E 029°43'0 0.0
2017-Aug-18 11:30N 70°38' E 029°43'0 0.0
2017-Aug-18 11:00N 70°38' E 029°43'0 0.0
2017-Aug-18 10:30N 70°38' E 029°43'0 0.0
2017-Aug-18 10:00N 70°38' E 029°43'0 0.0
2017-Aug-18 09:29N 70°38' E 029°43'0 0.0
2017-Aug-18 09:00N 70°38' E 029°43'0 0.0
2017-Aug-18 08:29N 70°38' E 029°43'0 0.0
2017-Aug-18 07:59N 70°38' E 029°43'0 0.0
2017-Aug-18 07:30N 70°38' E 029°43'0 0.0
2017-Aug-18 06:59N 70°38' E 029°43'0 0.0
2017-Aug-18 06:30N 70°38' E 029°43'0 0.0
2017-Aug-18 06:00N 70°38' E 029°43'0 0.0
2017-Aug-18 05:29N 70°38' E 029°43'0 0.0
2017-Aug-18 05:00N 70°38' E 029°43'0 0.0
2017-Aug-18 04:29N 70°38' E 029°43'1 3.1
2017-Aug-18 04:00N 70°39' E 029°47'713.9
2017-Aug-18 03:30N 70°43' E 030°03'713.5
2017-Aug-18 03:00N 70°40' E 030°20'714.2
2017-Aug-18 02:30N 70°35' E 030°36'713.9
2017-Aug-18 02:00N 70°30' E 030°51'713.7
2017-Aug-18 01:30N 70°24' E 031°02'713.4
2017-Aug-18 01:00N 70°18' E 031°05'713.9
2017-Aug-18 00:30N 70°12' E 030°53'714.1
2017-Aug-18 00:00N 70°07' E 030°40'714.1
2017-Aug-17 23:30N 70°01' E 030°27'714.3
2017-Aug-17 23:00N 69°55' E 030°15'713.7
2017-Aug-17 22:30N 69°49' E 030°07'511.0
2017-Aug-17 22:00N 69°44' E 030°04'0 0.0
2017-Aug-17 21:30N 69°44' E 030°04'0 0.0
2017-Aug-17 20:59N 69°44' E 030°04'0 0.0
2017-Aug-17 20:30N 69°44' E 030°04'0 0.0
2017-Aug-17 20:00N 69°44' E 030°04'0 0.0
2017-Aug-17 18:41N 69°44' E 030°04'0 0.0
2017-Aug-17 18:30N 69°44' E 030°04'0 0.0
2017-Aug-17 18:00N 69°44' E 030°04'0 0.0
2017-Aug-17 17:30N 69°44' E 030°04'1 1.6
2017-Aug-17 17:00N 69°45' E 030°05'713.1
2017-Aug-17 16:30N 69°51' E 030°07'713.9
2017-Aug-17 16:00N 69°57' E 030°19'714.5
2017-Aug-17 15:30N 70°02' E 030°32'714.7
2017-Aug-17 15:00N 70°08' E 030°45'714.8
2017-Aug-17 14:30N 70°14' E 030°59'713.7
2017-Aug-17 14:00N 70°20' E 031°05'714.9
2017-Aug-17 13:30N 70°27' E 030°58'815.3
2017-Aug-17 13:00N 70°33' E 030°42'815.4
2017-Aug-17 12:30N 70°38' E 030°25'815.8
2017-Aug-17 12:00N 70°43' E 030°06'713.4
2017-Aug-17 11:30N 70°40' E 029°49'3 5.2
2017-Aug-17 11:00N 70°38' E 029°44'0 0.0
2017-Aug-17 10:30N 70°38' E 029°44'0 0.0
2017-Aug-17 10:00N 70°38' E 029°44'0 0.0
2017-Aug-17 09:29N 70°38' E 029°44'3 5.7
2017-Aug-17 09:00N 70°40' E 029°49'613.4
2017-Aug-17 08:30N 70°46' E 029°43'815.6
2017-Aug-17 07:59N 70°51' E 029°24'715.2
2017-Aug-17 07:30N 70°55' E 029°06'815.1
2017-Aug-17 07:00N 70°60' E 028°46'714.7
2017-Aug-17 06:30N 71°04' E 028°29'714.1
2017-Aug-17 06:00N 71°07' E 028°10'8 4.9
2017-Aug-17 04:27N 71°03' E 027°50'612.8
2017-Aug-17 04:00N 71°08' E 027°41'714.1
2017-Aug-17 03:30N 71°07' E 027°20'714.9
2017-Aug-17 03:00N 71°04' E 026°59'815.0
2017-Aug-17 02:30N 71°02' E 026°37'715.0
2017-Aug-17 02:00N 70°59' E 026°15'714.7
2017-Aug-17 01:30N 70°57' E 025°54'714.0
2017-Aug-17 01:00N 70°56' E 025°33'612.5
2017-Aug-17 00:30N 70°59' E 025°17'714.6
2017-Aug-17 00:00N 70°60' E 024°55'714.6
2017-Aug-16 23:30N 71°02' E 024°33'815.0
2017-Aug-16 23:00N 70°57' E 024°16'815.5
2017-Aug-16 22:31N 70°51' E 023°59'815.2
2017-Aug-16 22:00N 70°46' E 023°42'714.4
2017-Aug-16 21:30N 70°40' E 023°31'3 6.9
2017-Aug-16 21:00N 70°38' E 023°40'0 0.0
2017-Aug-16 20:30N 70°38' E 023°40'0 0.0
2017-Aug-16 20:00N 70°38' E 023°40'1 1.3
2017-Aug-16 19:30N 70°38' E 023°38'714.5
2017-Aug-16 19:00N 70°37' E 023°17'714.3
2017-Aug-16 18:30N 70°32' E 023°00'714.3
2017-Aug-16 18:00N 70°29' E 022°40'714.2
2017-Aug-16 17:30N 70°27' E 022°20'713.8
2017-Aug-16 17:00N 70°26' E 022°00'714.5
2017-Aug-16 16:30N 70°23' E 021°40'815.2
2017-Aug-16 16:00N 70°18' E 021°25'714.7
2017-Aug-16 15:30N 70°13' E 021°08'714.7
2017-Aug-16 15:00N 70°06' E 020°59'714.3
2017-Aug-16 14:30N 70°02' E 020°42'815.1
2017-Aug-16 14:00N 69°60' E 020°21'714.9
2017-Aug-16 13:30N 69°56' E 020°02'714.6
2017-Aug-16 13:00N 69°51' E 019°46'714.6
2017-Aug-16 12:30N 69°48' E 019°26'714.8
2017-Aug-16 12:00N 69°46' E 019°06'714.2
2017-Aug-16 11:29N 69°39' E 018°59'2 3.1
2017-Aug-16 10:58N 69°38' E 018°57'0 0.0
2017-Aug-16 10:28N 69°38' E 018°57'0 0.0
2017-Aug-16 09:58N 69°38' E 018°57'0 0.0
2017-Aug-16 09:31N 69°38' E 018°57'0 0.0
2017-Aug-16 09:00N 69°38' E 018°57'0 0.1
2017-Aug-16 08:30N 69°38' E 018°57'2 3.7
2017-Aug-16 08:00N 69°39' E 018°58'0 0.0
2017-Aug-16 07:30N 69°39' E 018°58'0 0.0
2017-Aug-16 07:00N 69°39' E 018°58'0 0.0
2017-Aug-16 06:30N 69°39' E 018°58'0 0.0
2017-Aug-16 06:00N 69°39' E 018°58'0 0.0
2017-Aug-16 05:30N 69°39' E 018°58'0 0.0
2017-Aug-16 05:00N 69°39' E 018°58'0 0.0
2017-Aug-16 04:30N 69°39' E 018°58'0 0.0
2017-Aug-16 04:00N 69°39' E 018°58'0 0.0
2017-Aug-16 03:30N 69°39' E 018°58'0 0.0
2017-Aug-16 03:00N 69°39' E 018°58'0 0.0
2017-Aug-16 02:30N 69°39' E 018°58'0 0.0
2017-Aug-16 02:00N 69°39' E 018°58'0 0.0
2017-Aug-16 01:30N 69°39' E 018°58'0 0.0
2017-Aug-16 01:00N 69°39' E 018°58'0 0.0
2017-Aug-16 00:30N 69°39' E 018°58'0 0.0
2017-Aug-16 00:01N 69°39' E 018°58'0 0.0
2017-Aug-15 23:30N 69°39' E 018°58'0 0.0
2017-Aug-15 23:00N 69°39' E 018°58'0 0.0
2017-Aug-15 22:30N 69°39' E 018°58'0 0.0
2017-Aug-15 22:00N 69°39' E 018°58'0 0.0
2017-Aug-15 21:30N 69°39' E 018°58'0 0.0
2017-Aug-15 21:00N 69°39' E 018°58'0 0.0
2017-Aug-15 20:30N 69°39' E 018°58'0 0.0
2017-Aug-15 20:00N 69°39' E 018°58'0 0.0
2017-Aug-15 19:30N 69°39' E 018°58'0 0.0
2017-Aug-15 19:00N 69°39' E 018°58'0 0.0
2017-Aug-15 18:30N 69°39' E 018°58'0 0.0
2017-Aug-15 17:59N 69°39' E 018°58'0 0.0
2017-Aug-15 17:30N 69°39' E 018°58'0 0.0
2017-Aug-15 17:00N 69°39' E 018°58'0 0.0
2017-Aug-15 16:29N 69°39' E 018°58'0 0.0
2017-Aug-15 16:00N 69°39' E 018°58'0 0.0
2017-Aug-15 15:30N 69°39' E 018°58'0 0.0
2017-Aug-15 15:00N 69°39' E 018°58'0 0.0
2017-Aug-15 14:30N 69°39' E 018°58'0 0.0
2017-Aug-15 14:00N 69°39' E 018°58'0 0.0
2017-Aug-15 13:30N 69°39' E 018°58'0 0.0
2017-Aug-15 12:59N 69°39' E 018°58'0 0.0
2017-Aug-15 12:30N 69°39' E 018°58'0 0.0
2017-Aug-15 12:00N 69°39' E 018°58'0 0.0
2017-Aug-15 11:30N 69°39' E 018°58'0 0.0
2017-Aug-15 11:00N 69°39' E 018°58'0 0.0
2017-Aug-15 10:30N 69°39' E 018°58'0 0.0
2017-Aug-15 10:00N 69°39' E 018°58'0 0.0
2017-Aug-15 09:30N 69°39' E 018°58'0 0.0
2017-Aug-15 09:00N 69°39' E 018°58'0 0.0
2017-Aug-15 08:30N 69°39' E 018°58'0 0.0
2017-Aug-15 08:00N 69°39' E 018°58'0 0.0
2017-Aug-15 07:30N 69°39' E 018°58'0 0.0
2017-Aug-15 07:00N 69°39' E 018°58'0 0.0
2017-Aug-15 06:30N 69°39' E 018°58'0 0.0
2017-Aug-15 06:00N 69°39' E 018°58'2 4.5
2017-Aug-15 05:30N 69°37' E 018°56'4 8.2
2017-Aug-15 05:00N 69°34' E 018°48'4 8.2
2017-Aug-15 04:30N 69°33' E 018°38'4 8.6
2017-Aug-15 04:00N 69°31' E 018°26'4 8.5
2017-Aug-15 03:30N 69°30' E 018°14'4 8.4
2017-Aug-15 03:00N 69°26' E 018°07'4 9.0
2017-Aug-15 02:30N 69°22' E 018°06'5 9.5
2017-Aug-15 02:00N 69°18' E 017°58'4 8.3
2017-Aug-15 01:30N 69°14' E 017°58'0 0.0
2017-Aug-15 01:00N 69°14' E 017°58'0 0.0
2017-Aug-15 00:30N 69°14' E 017°58'0 0.0
2017-Aug-15 00:00N 69°14' E 017°58'0 0.0
2017-Aug-14 23:30N 69°14' E 017°58'0 0.0
2017-Aug-14 23:00N 69°14' E 017°58'0 0.0
2017-Aug-14 22:29N 69°14' E 017°58'0 0.0
2017-Aug-14 22:00N 69°14' E 017°58'0 0.0
2017-Aug-14 21:30N 69°14' E 017°58'2 3.5
2017-Aug-14 21:00N 69°12' E 018°01'713.2
2017-Aug-14 20:30N 69°08' E 017°46'714.9
2017-Aug-14 20:00N 69°06' E 017°26'815.1
2017-Aug-14 19:30N 68°59' E 017°15'814.9
2017-Aug-14 19:00N 68°54' E 017°00'714.9
2017-Aug-14 18:30N 68°48' E 016°50'714.6
2017-Aug-14 18:00N 68°41' E 016°41'816.1
2017-Aug-14 17:29N 68°34' E 016°31'714.5
2017-Aug-14 17:00N 68°32' E 016°12'714.4
2017-Aug-14 16:30N 68°26' E 016°02'1 2.0
2017-Aug-14 16:00N 68°25' E 015°60'0 0.0
2017-Aug-14 15:30N 68°25' E 015°60'16 6.7
2017-Aug-14 13:07N 68°12' E 015°34'215.3
2017-Aug-14 13:00N 68°11' E 015°30'815.2
2017-Aug-14 12:30N 68°07' E 015°14'815.2
2017-Aug-14 12:00N 68°01' E 014°59'815.2
2017-Aug-14 11:30N 67°57' E 014°43'714.8
2017-Aug-14 11:00N 67°52' E 014°29'714.3
2017-Aug-14 10:30N 67°46' E 014°19'713.4
2017-Aug-14 10:00N 67°39' E 014°16'713.7
2017-Aug-14 09:30N 67°32' E 014°20'713.5
2017-Aug-14 09:00N 67°26' E 014°26'714.1
2017-Aug-14 08:30N 67°20' E 014°19'715.0
2017-Aug-14 08:00N 67°13' E 014°09'815.1
2017-Aug-14 07:30N 67°07' E 013°59'714.7
2017-Aug-14 07:00N 67°02' E 013°46'714.4
2017-Aug-14 06:31N 66°58' E 013°30'713.0
2017-Aug-14 06:00N 66°52' E 013°21'714.1
2017-Aug-14 05:30N 66°46' E 013°13'714.9
2017-Aug-14 05:00N 66°39' E 013°07'713.4
2017-Aug-14 04:30N 66°33' E 013°01'713.1
2017-Aug-14 04:00N 66°26' E 012°59'715.0
2017-Aug-14 03:30N 66°19' E 012°57'814.9
2017-Aug-14 03:00N 66°12' E 012°51'715.0
2017-Aug-14 02:30N 66°05' E 012°41'815.0
2017-Aug-14 02:00N 65°59' E 012°30'714.8
2017-Aug-14 01:30N 65°53' E 012°22'714.8
2017-Aug-14 01:00N 65°45' E 012°18'715.0
2017-Aug-14 00:30N 65°38' E 012°13'714.7
2017-Aug-14 00:00N 65°32' E 012°03'714.6
2017-Aug-13 23:30N 65°26' E 011°56'612.0
2017-Aug-13 23:00N 65°20' E 012°02'714.9
2017-Aug-13 22:30N 65°13' E 011°54'714.5
2017-Aug-13 22:00N 65°07' E 011°48'714.6
2017-Aug-13 21:30N 65°01' E 011°39'714.7
2017-Aug-13 21:01N 64°56' E 011°25'714.0
2017-Aug-13 20:31N 64°51' E 011°13'714.6
2017-Aug-13 20:01N 64°46' E 011°01'714.7
2017-Aug-13 19:30N 64°41' E 010°48'714.5
2017-Aug-13 19:00N 64°36' E 010°36'714.7
2017-Aug-13 18:30N 64°31' E 010°24'815.0
2017-Aug-13 18:00N 64°25' E 010°12'714.6
2017-Aug-13 17:30N 64°20' E 009°59'714.2
2017-Aug-13 17:00N 64°16' E 009°47'714.2
2017-Aug-13 16:30N 64°11' E 009°36'714.3
2017-Aug-13 16:01N 64°05' E 009°25'714.4
2017-Aug-13 15:30N 63°59' E 009°16'713.4
2017-Aug-13 15:00N 63°53' E 009°10'612.6
2017-Aug-13 14:30N 63°47' E 009°11'714.1
2017-Aug-13 14:01N 63°40' E 009°14'714.6
2017-Aug-13 13:30N 63°32' E 009°15'916.9
2017-Aug-13 13:00N 63°29' E 008°58'816.4
2017-Aug-13 12:30N 63°26' E 008°41'816.2
2017-Aug-13 12:00N 63°22' E 008°25'816.5
2017-Aug-13 11:30N 63°17' E 008°11'816.0
2017-Aug-13 11:00N 63°13' E 007°55'815.3
2017-Aug-13 10:30N 63°08' E 007°42'3 6.2
2017-Aug-13 10:00N 63°06' E 007°47'0 0.0
2017-Aug-13 09:30N 63°06' E 007°47'0 0.2
2017-Aug-13 09:00N 63°06' E 007°47'510.6
2017-Aug-13 08:31N 63°07' E 007°35'815.3
2017-Aug-13 08:01N 63°04' E 007°21'815.0
2017-Aug-13 07:30N 63°01' E 007°05'714.8
2017-Aug-13 07:00N 62°57' E 006°51'714.9
2017-Aug-13 06:30N 62°51' E 006°42'815.4
2017-Aug-13 06:00N 62°45' E 006°32'815.2
2017-Aug-13 05:31N 62°38' E 006°23'815.0
2017-Aug-13 05:00N 62°33' E 006°11'5 9.7
2017-Aug-13 04:30N 62°29' E 006°16'1 1.8
2017-Aug-13 04:00N 62°29' E 006°18'611.1
2017-Aug-13 03:30N 62°29' E 006°06'1 2.2
2017-Aug-13 03:00N 62°28' E 006°08'0 0.1
2017-Aug-13 02:30N 62°28' E 006°08'2 3.3
2017-Aug-13 02:00N 62°27' E 006°06'714.6
2017-Aug-13 01:30N 62°25' E 005°51'611.9
2017-Aug-13 01:00N 62°20' E 005°45'713.6
2017-Aug-13 00:30N 62°18' E 005°30'714.6
2017-Aug-13 00:00N 62°15' E 005°16'713.9
2017-Aug-12 23:30N 62°11' E 005°05'713.7
2017-Aug-12 23:00N 62°04' E 005°07'510.7
2017-Aug-12 22:30N 61°59' E 005°08'0 0.9
2017-Aug-12 22:00N 61°59' E 005°09'2 4.5
2017-Aug-12 21:30N 61°56' E 005°07'0 0.0
2017-Aug-12 21:01N 61°56' E 005°07'3 6.3
2017-Aug-12 20:30N 61°53' E 005°10'4 8.6
2017-Aug-12 20:00N 61°49' E 005°12'713.9
2017-Aug-12 19:29N 61°45' E 004°59'713.5
2017-Aug-12 19:00N 61°42' E 004°47'713.5
2017-Aug-12 18:30N 61°41' E 004°33'714.4
2017-Aug-12 18:00N 61°36' E 004°22'  

Dump ship's entire track history